createdAt,value
2022-10-26T00:01:08.129Z,82.82
2022-10-26T00:04:10.788Z,82.65
2022-10-26T00:07:13.394Z,82.53
2022-10-26T00:10:16.468Z,82.95
2022-10-26T00:13:20.386Z,83.35
2022-10-26T00:16:24.298Z,83.48
2022-10-26T00:19:27.050Z,82.80
2022-10-26T00:22:29.762Z,82.51
2022-10-26T00:25:32.394Z,82.60
2022-10-26T00:28:36.994Z,82.56
2022-10-26T00:31:39.768Z,82.78
2022-10-26T00:34:42.432Z,82.80
2022-10-26T00:37:45.253Z,82.64
2022-10-26T00:40:48.083Z,83.11
2022-10-26T00:43:52.767Z,82.78
2022-10-26T00:46:55.465Z,82.73
2022-10-26T00:50:02.938Z,82.53
2022-10-26T00:53:06.598Z,82.78
2022-10-26T00:56:09.617Z,82.75
2022-10-26T00:59:14.414Z,82.76
2022-10-26T01:02:17.444Z,82.61
2022-10-26T01:05:20.422Z,83.03
2022-10-26T01:08:23.855Z,82.97
2022-10-26T01:11:26.546Z,82.62
2022-10-26T01:14:31.933Z,82.96
2022-10-26T01:17:44.772Z,82.94
2022-10-26T01:21:38.625Z,83.21
2022-10-26T01:24:54.139Z,83.31
2022-10-26T01:27:57.251Z,83.54
2022-10-26T01:31:03.117Z,84.13
2022-10-26T01:34:10.311Z,83.75
2022-10-26T01:37:15.193Z,83.25
2022-10-26T01:40:22.697Z,83.76
2022-10-26T01:43:26.590Z,83.50
2022-10-26T01:46:34.671Z,84.18
2022-10-26T01:49:40.674Z,83.85
2022-10-26T01:52:43.337Z,83.21
2022-10-26T01:55:49.544Z,82.96
2022-10-26T01:59:05.650Z,83.13
2022-10-26T02:02:30.852Z,83.90
2022-10-26T02:05:42.196Z,84.79
2022-10-26T02:08:58.394Z,85.71
2022-10-26T02:12:04.464Z,86.59
2022-10-26T02:15:08.793Z,87.15
2022-10-26T02:18:19.464Z,88.18
2022-10-26T02:21:26.671Z,88.65
2022-10-26T02:24:29.840Z,89.32
2022-10-26T02:27:36.108Z,89.53
2022-10-26T02:30:40.570Z,88.79
2022-10-26T02:36:50.640Z,88.33
2022-10-26T02:39:54.036Z,88.78
2022-10-26T02:43:00.458Z,88.54
2022-10-26T02:46:06.528Z,89.13
2022-10-26T02:49:10.491Z,89.70
2022-10-26T02:52:18.409Z,89.56
2022-10-26T02:55:23.977Z,89.78
2022-10-26T02:58:28.992Z,89.85
2022-10-26T03:01:32.394Z,90.54
2022-10-26T03:04:36.902Z,90.42
2022-10-26T03:07:39.599Z,89.96
2022-10-26T03:10:43.711Z,89.93
2022-10-26T03:13:46.425Z,89.48
2022-10-26T03:16:49.077Z,89.52
2022-10-26T03:19:53.052Z,89.14
2022-10-26T03:22:56.973Z,89.41
2022-10-26T03:26:00.093Z,88.80
2022-10-26T03:29:02.818Z,89.11
2022-10-26T03:32:06.060Z,89.16
2022-10-26T03:35:10.457Z,89.08
2022-10-26T03:38:15.951Z,89.53
2022-10-26T03:41:18.893Z,89.31
2022-10-26T03:44:21.589Z,88.64
2022-10-26T03:47:24.423Z,88.72
2022-10-26T03:50:28.374Z,88.82
2022-10-26T03:53:31.171Z,88.95
2022-10-26T03:56:33.812Z,88.70
2022-10-26T03:59:37.233Z,88.66
2022-10-26T04:02:39.784Z,88.15
2022-10-26T04:05:43.937Z,87.95
2022-10-26T04:08:46.568Z,87.87
2022-10-26T04:11:49.436Z,87.83
2022-10-26T04:14:52.181Z,87.38
2022-10-26T04:17:58.934Z,87.00
2022-10-26T04:21:03.628Z,86.89
2022-10-26T04:24:06.848Z,85.92
2022-10-26T04:27:09.599Z,85.89
2022-10-26T04:30:13.718Z,86.37
2022-10-26T04:33:18.066Z,86.96
2022-10-26T04:36:22.034Z,86.58
2022-10-26T04:39:25.700Z,86.85
2022-10-26T04:42:28.409Z,87.17
2022-10-26T04:45:31.671Z,87.56
2022-10-26T04:48:34.344Z,88.62
2022-10-26T04:51:38.336Z,88.37
2022-10-26T04:54:41.118Z,87.83
2022-10-26T04:57:46.241Z,88.12
2022-10-26T05:00:49.216Z,87.94
2022-10-26T05:03:53.150Z,87.31
2022-10-26T05:06:57.101Z,87.33
2022-10-26T05:09:59.750Z,86.76
2022-10-26T05:13:02.611Z,86.74
2022-10-26T05:16:05.937Z,86.82
2022-10-26T05:19:08.561Z,87.35
2022-10-26T05:22:12.799Z,86.62
2022-10-26T05:25:15.589Z,86.77
2022-10-26T05:28:19.024Z,87.24
2022-10-26T05:31:22.311Z,87.34
2022-10-26T05:34:25.036Z,87.17
2022-10-26T05:37:30.806Z,87.01
2022-10-26T05:40:33.492Z,87.21
2022-10-26T05:43:36.202Z,87.15
2022-10-26T05:46:38.846Z,87.11
2022-10-26T05:49:41.577Z,86.47
2022-10-26T05:52:46.986Z,86.41
2022-10-26T05:55:50.587Z,86.57
2022-10-26T05:58:53.683Z,86.81
2022-10-26T06:02:05.562Z,86.73
2022-10-26T06:05:11.098Z,86.66
2022-10-26T06:08:15.723Z,86.79
2022-10-26T06:11:19.296Z,86.46
2022-10-26T06:14:22.074Z,86.45
2022-10-26T06:17:36.033Z,85.71
2022-10-26T06:20:47.737Z,86.21
2022-10-26T06:23:55.639Z,86.37
2022-10-26T06:27:06.513Z,86.36
2022-10-26T06:30:11.857Z,86.45
2022-10-26T06:33:29.001Z,86.31
2022-10-26T06:36:33.495Z,86.12
2022-10-26T06:39:37.924Z,85.72
2022-10-26T06:42:41.063Z,85.76
2022-10-26T06:45:46.752Z,86.29
2022-10-26T06:48:53.176Z,85.83
2022-10-26T06:51:58.906Z,86.02
2022-10-26T06:55:05.146Z,85.66
2022-10-26T06:58:10.397Z,85.33
2022-10-26T07:01:13.999Z,85.57
2022-10-26T07:04:16.497Z,85.29
2022-10-26T07:07:20.278Z,84.31
2022-10-26T07:10:24.218Z,84.40
2022-10-26T07:13:26.802Z,84.09
2022-10-26T07:16:29.527Z,82.65
2022-10-26T07:19:32.254Z,80.60
2022-10-26T07:22:34.855Z,77.80
2022-10-26T07:25:40.583Z,75.99
2022-10-26T07:28:43.389Z,74.68
2022-10-26T07:31:46.123Z,73.13
2022-10-26T07:34:48.898Z,71.79
2022-10-26T07:37:51.496Z,71.28
2022-10-26T07:40:55.962Z,70.33
2022-10-26T07:43:58.790Z,70.05
2022-10-26T07:47:01.648Z,69.62
2022-10-26T07:50:05.934Z,68.83
2022-10-26T07:53:08.627Z,69.03
2022-10-26T07:56:12.791Z,68.30
2022-10-26T07:59:15.744Z,67.74
2022-10-26T08:02:19.166Z,67.93
2022-10-26T08:05:21.772Z,67.37
2022-10-26T08:08:24.488Z,66.68
2022-10-26T08:11:28.712Z,66.47
2022-10-26T08:14:31.589Z,66.37
2022-10-26T08:17:34.317Z,65.72
2022-10-26T08:20:36.984Z,64.80
2022-10-26T08:23:40.095Z,64.61
2022-10-26T08:26:44.308Z,64.61
2022-10-26T08:29:46.911Z,63.90
2022-10-26T08:32:49.809Z,64.02
2022-10-26T08:35:56.628Z,63.58
2022-10-26T08:42:08.597Z,62.99
2022-10-26T08:45:15.335Z,63.51
2022-10-26T08:48:20.829Z,63.34
2022-10-26T08:51:25.285Z,63.43
2022-10-26T08:54:35.996Z,63.55
2022-10-26T08:57:42.392Z,63.16
2022-10-26T09:00:46.405Z,61.68
2022-10-26T09:03:49.021Z,61.30
2022-10-26T09:06:58.260Z,59.96
2022-10-26T09:10:05.913Z,59.05
2022-10-26T09:13:20.607Z,58.29
2022-10-26T09:16:29.098Z,57.49
2022-10-26T09:19:50.616Z,56.70
2022-10-26T09:22:57.976Z,55.85
2022-10-26T09:26:01.897Z,55.56
2022-10-26T09:29:07.027Z,56.37
2022-10-26T09:32:14.499Z,56.81
2022-10-26T09:35:20.143Z,56.81
2022-10-26T09:38:26.341Z,57.09
2022-10-26T09:41:33.003Z,57.87
2022-10-26T09:44:40.519Z,59.02
2022-10-26T09:47:46.083Z,58.41
2022-10-26T09:50:51.421Z,58.11
2022-10-26T09:53:55.170Z,57.07
2022-10-26T09:57:01.767Z,55.26
2022-10-26T10:00:07.383Z,55.02
2022-10-26T10:03:19.774Z,54.15
2022-10-26T10:06:25.815Z,54.01
2022-10-26T10:09:28.647Z,54.41
2022-10-26T10:12:31.282Z,53.73
2022-10-26T10:15:35.535Z,53.91
2022-10-26T10:18:39.123Z,53.09
2022-10-26T10:21:46.155Z,52.00
2022-10-26T10:24:55.478Z,51.78
2022-10-26T10:27:58.107Z,51.29
2022-10-26T10:31:03.613Z,51.96
2022-10-26T10:34:17.454Z,50.25
2022-10-26T10:37:25.566Z,49.66
2022-10-26T10:40:30.742Z,49.36
2022-10-26T10:43:33.921Z,48.96
2022-10-26T10:46:38.714Z,49.77
2022-10-26T10:49:42.656Z,49.52
2022-10-26T10:52:45.785Z,50.68
2022-10-26T10:59:09.782Z,50.29
2022-10-26T11:02:42.930Z,50.80
2022-10-26T11:05:53.664Z,51.56
2022-10-26T11:09:00.773Z,51.54
2022-10-26T11:12:05.513Z,50.63
2022-10-26T11:15:12.344Z,49.95
2022-10-26T11:18:19.527Z,48.72
2022-10-26T11:21:28.195Z,48.52
2022-10-26T11:24:34.529Z,49.45
2022-10-26T11:27:40.859Z,48.44
2022-10-26T11:30:47.526Z,47.63
2022-10-26T11:34:03.084Z,47.13
2022-10-26T11:37:10.483Z,46.91
2022-10-26T11:40:23.891Z,46.74
2022-10-26T11:43:32.235Z,46.22
2022-10-26T11:46:39.125Z,45.10
2022-10-26T11:49:46.220Z,44.62
2022-10-26T11:52:52.544Z,43.04
2022-10-26T11:55:56.450Z,42.10
2022-10-26T11:59:00.098Z,42.45
2022-10-26T12:02:06.000Z,43.18
2022-10-26T12:05:20.849Z,42.35
2022-10-26T12:08:27.622Z,43.07
2022-10-26T12:11:38.190Z,43.25
2022-10-26T12:14:44.162Z,43.78
2022-10-26T12:17:52.460Z,43.62
2022-10-26T12:21:02.663Z,43.31
2022-10-26T12:24:28.940Z,42.34
2022-10-26T12:27:33.641Z,41.73
2022-10-26T12:30:37.991Z,41.57
2022-10-26T12:33:50.545Z,41.21
2022-10-26T12:37:25.224Z,41.57
2022-10-26T12:40:42.907Z,42.55
2022-10-26T12:43:45.693Z,42.24
2022-10-26T12:46:48.387Z,43.49
2022-10-26T12:50:00.875Z,43.12
2022-10-26T12:53:09.322Z,43.33
2022-10-26T12:56:14.894Z,43.08
2022-10-26T12:59:29.220Z,43.04
2022-10-26T13:02:41.341Z,42.98
2022-10-26T13:06:00.231Z,42.34
2022-10-26T13:12:16.740Z,35.58
2022-10-26T13:15:20.808Z,34.46
2022-10-26T13:18:24.025Z,35.10
2022-10-26T13:21:27.643Z,34.39
2022-10-26T13:24:33.044Z,25.51
2022-10-26T13:27:43.731Z,22.40
2022-10-26T13:30:48.626Z,21.04
2022-10-26T13:33:52.664Z,19.28
2022-10-26T13:37:02.818Z,20.52
2022-10-26T13:40:08.379Z,20.81
2022-10-26T13:43:17.929Z,20.47
2022-10-26T13:46:25.411Z,19.99
2022-10-26T13:49:32.013Z,20.47
2022-10-26T13:52:37.061Z,21.87
2022-10-26T13:55:53.215Z,22.71
2022-10-26T13:59:00.658Z,25.47
2022-10-26T14:02:17.619Z,20.60
2022-10-26T14:05:20.686Z,18.66
2022-10-26T14:08:23.771Z,17.75
2022-10-26T14:11:33.804Z,18.46
2022-10-26T14:14:37.676Z,22.06
2022-10-26T14:17:40.276Z,29.68
2022-10-26T14:20:49.041Z,33.67
2022-10-26T14:23:55.799Z,36.82
2022-10-26T14:26:59.930Z,37.96
2022-10-26T14:30:21.698Z,38.60
2022-10-26T14:33:28.966Z,39.82
2022-10-26T14:36:35.099Z,40.39
2022-10-26T14:39:40.960Z,40.69
2022-10-26T14:42:50.076Z,40.12
2022-10-26T14:45:54.258Z,39.96
2022-10-26T14:48:58.437Z,36.68
2022-10-26T14:52:05.766Z,33.09
2022-10-26T14:55:14.691Z,27.85
2022-10-26T14:58:26.615Z,27.88
2022-10-26T15:01:36.135Z,26.03
2022-10-26T15:04:40.846Z,30.65
2022-10-26T15:07:44.693Z,28.90
2022-10-26T15:10:48.816Z,27.10
2022-10-26T15:13:53.799Z,26.16
2022-10-26T15:16:58.406Z,28.92
2022-10-26T15:20:04.633Z,36.18
2022-10-26T15:23:07.479Z,42.00
2022-10-26T15:26:11.080Z,45.05
2022-10-26T15:29:45.567Z,47.91
2022-10-26T15:32:48.816Z,50.20
2022-10-26T15:35:51.704Z,52.34
2022-10-26T15:38:55.611Z,54.13
2022-10-26T15:41:58.216Z,56.08
2022-10-26T15:45:02.224Z,57.57
2022-10-26T15:48:20.053Z,58.90
2022-10-26T15:51:22.723Z,60.63
2022-10-26T15:54:25.548Z,62.29
2022-10-26T15:57:28.451Z,63.39
2022-10-26T16:00:32.431Z,64.77
2022-10-26T16:03:35.104Z,65.67
2022-10-26T16:06:39.109Z,66.93
2022-10-26T16:09:42.137Z,68.03
2022-10-26T16:12:44.760Z,69.19
2022-10-26T16:15:48.918Z,69.98
2022-10-26T16:19:06.126Z,70.70
2022-10-26T16:22:14.826Z,71.37
2022-10-26T16:25:18.800Z,71.08
2022-10-26T16:28:21.436Z,71.13
2022-10-26T16:31:25.393Z,71.87
2022-10-26T16:34:28.122Z,72.28
2022-10-26T16:37:31.352Z,73.03
2022-10-26T16:40:33.930Z,73.85
2022-10-26T16:43:38.383Z,74.47
2022-10-26T16:46:42.410Z,75.18
2022-10-26T16:49:45.053Z,75.58
2022-10-26T16:52:47.978Z,76.48
2022-10-26T16:55:50.559Z,76.77
2022-10-26T16:58:53.298Z,76.52
2022-10-26T17:01:57.638Z,76.46
2022-10-26T17:05:04.165Z,76.47
2022-10-26T17:08:10.990Z,76.55
2022-10-26T17:11:14.745Z,76.74
2022-10-26T17:14:17.418Z,76.85
2022-10-26T17:17:21.341Z,76.91
2022-10-26T17:20:24.044Z,76.77
2022-10-26T17:23:26.779Z,76.24
2022-10-26T17:26:29.800Z,77.16
2022-10-26T17:29:32.494Z,77.29
2022-10-26T17:32:37.533Z,77.57
2022-10-26T17:35:40.288Z,77.80
2022-10-26T17:38:44.107Z,78.49
2022-10-26T17:41:47.459Z,78.57
2022-10-26T17:44:50.005Z,79.38
2022-10-26T17:47:54.306Z,79.58
2022-10-26T17:50:59.555Z,80.12
2022-10-26T17:54:02.182Z,80.33
2022-10-26T17:57:04.958Z,80.88
2022-10-26T18:00:08.829Z,81.21
2022-10-26T18:03:12.831Z,81.34
2022-10-26T18:06:17.194Z,81.79
2022-10-26T18:09:20.982Z,82.26
2022-10-26T18:12:24.523Z,83.05
2022-10-26T18:15:27.264Z,82.43
2022-10-26T18:18:33.095Z,82.57
2022-10-26T18:21:38.582Z,82.15
2022-10-26T18:24:41.683Z,81.67
2022-10-26T18:27:44.318Z,81.65
2022-10-26T18:30:47.118Z,82.01
2022-10-26T18:33:55.636Z,82.74
2022-10-26T18:36:58.464Z,83.06
2022-10-26T18:40:01.907Z,83.26
2022-10-26T18:43:04.488Z,83.44
2022-10-26T18:46:08.898Z,82.41
2022-10-26T18:49:14.017Z,82.08
2022-10-26T18:52:16.774Z,81.93
2022-10-26T18:55:19.418Z,82.08
2022-10-26T18:58:22.953Z,83.50
2022-10-26T19:01:27.242Z,84.35
2022-10-26T19:04:31.541Z,84.68
2022-10-26T19:07:34.700Z,84.43
2022-10-26T19:10:37.394Z,84.43
2022-10-26T19:13:40.254Z,85.13
2022-10-26T19:16:47.177Z,85.49
2022-10-26T19:19:51.912Z,85.85
2022-10-26T19:22:54.698Z,85.94
2022-10-26T19:25:57.343Z,86.08
2022-10-26T19:29:01.435Z,85.74
2022-10-26T19:32:04.912Z,85.94
2022-10-26T19:35:09.263Z,86.23
2022-10-26T19:38:12.832Z,86.45
2022-10-26T19:41:17.911Z,86.70
2022-10-26T19:44:25.326Z,88.29
2022-10-26T19:47:28.357Z,88.62
2022-10-26T19:50:33.951Z,88.84
2022-10-26T19:53:37.119Z,88.96
2022-10-26T19:56:39.991Z,88.50
2022-10-26T19:59:42.653Z,88.11
2022-10-26T20:02:47.071Z,88.46
2022-10-26T20:05:52.647Z,89.41
2022-10-26T20:08:55.564Z,89.71
2022-10-26T20:11:58.343Z,89.26
2022-10-26T20:15:06.869Z,90.30
2022-10-26T20:18:12.995Z,90.14
2022-10-26T20:21:17.947Z,90.74
2022-10-26T20:24:20.609Z,91.79
2022-10-26T20:27:25.243Z,92.38
2022-10-26T20:30:27.938Z,92.17
2022-10-26T20:33:30.654Z,92.64
2022-10-26T20:36:34.672Z,91.98
2022-10-26T20:39:38.912Z,92.02
2022-10-26T20:42:42.816Z,91.15
2022-10-26T20:45:46.404Z,90.68
2022-10-26T20:48:49.371Z,90.32
2022-10-26T20:52:19.632Z,89.94
2022-10-26T20:55:30.912Z,89.89
2022-10-26T20:58:38.960Z,90.86
2022-10-26T21:01:42.615Z,91.55
2022-10-26T21:04:45.648Z,91.67
2022-10-26T21:07:49.978Z,90.62
2022-10-26T21:10:53.058Z,90.84
2022-10-26T21:13:56.162Z,91.24
2022-10-26T21:16:58.881Z,92.29
2022-10-26T21:20:01.649Z,92.75
2022-10-26T21:23:05.754Z,93.23
2022-10-26T21:26:10.187Z,92.63
2022-10-26T21:29:12.980Z,92.33
2022-10-26T21:32:15.690Z,92.03
2022-10-26T21:35:18.452Z,92.28
2022-10-26T21:38:22.486Z,93.12
2022-10-26T21:44:40.927Z,93.50
2022-10-26T21:47:44.890Z,93.11
2022-10-26T21:50:47.499Z,93.96
2022-10-26T21:53:52.828Z,93.70
2022-10-26T21:56:55.460Z,94.27
2022-10-26T21:59:58.135Z,94.16
2022-10-26T22:03:00.920Z,93.32
2022-10-26T22:06:04.075Z,92.66
2022-10-26T22:09:08.563Z,91.99
2022-10-26T22:12:11.256Z,92.71
2022-10-26T22:15:13.989Z,93.02
2022-10-26T22:18:16.735Z,93.47
2022-10-26T22:21:20.737Z,93.01
2022-10-26T22:24:24.785Z,93.21
2022-10-26T22:27:28.986Z,93.09
2022-10-26T22:30:31.650Z,93.18
2022-10-26T22:33:34.688Z,94.20
2022-10-26T22:36:37.739Z,93.53
2022-10-26T22:39:41.773Z,94.25
2022-10-26T22:42:44.553Z,94.54
2022-10-26T22:45:59.837Z,94.82
2022-10-26T22:49:03.394Z,94.83
2022-10-26T22:52:05.997Z,94.71
2022-10-26T22:55:10.561Z,95.15
2022-10-26T22:58:13.266Z,94.99
2022-10-26T23:01:18.520Z,94.89
2022-10-26T23:04:21.265Z,95.15
2022-10-26T23:07:26.074Z,96.01
2022-10-26T23:10:30.204Z,95.73
2022-10-26T23:13:32.825Z,96.35
2022-10-26T23:16:35.430Z,95.18
2022-10-26T23:19:38.152Z,95.41
2022-10-26T23:22:40.811Z,95.31
2022-10-26T23:25:45.066Z,95.47
2022-10-26T23:28:48.197Z,95.48
2022-10-26T23:31:50.805Z,95.16
2022-10-26T23:34:53.527Z,96.28
2022-10-26T23:37:58.567Z,96.55
2022-10-26T23:41:02.710Z,96.31
2022-10-26T23:44:06.016Z,96.28
2022-10-26T23:47:08.683Z,96.22
2022-10-26T23:50:11.417Z,96.18
2022-10-26T23:53:15.982Z,96.51
2022-10-26T23:56:19.962Z,96.79
2022-10-26T23:59:22.644Z,96.78
